»·PEaware :: N219ME 2O7-3L2

N219ME :: 2O7-3L2

FLIGHT INFORMATION

Flight Status: Arrived
Operator: Privately registered:
United States
More flights under this callsign
Pilot: Mark E. (33670)
Aircraft: CESSNA 182 SKYLANE
(C182)
More flights by this aircraft type
Origin: 2O7 Independence
United States
Destination: 3L2 Sky Ranch
United States
More flights between these airports :: More routes between these airports
Route: 026 TUCKY V105-135 HIDEN TO
File this flight plan on PilotEdge
Remarks:
Altitude:
(Current/Filed)
11,500ft
Speed:
(Current/Filed)
145kts
Departed: 26-Sep-21 04:12 PM
Arrived: 26-Sep-21 05:18 PM
Distance/Time
Traveled:
139nm/1:05
Distance/Time
To Go:
Arrived

Flight Plot

Page will automatically refresh every two minutes.

Flight plan parsing failed; only flown route is shown


Map Options




Map Legend


Flown Route
Filed Route
Departure Airport
Arrival Airport
Navaid (VOR, NDB)
Fix

Horizontal Profiles

Position Reports

Time Latitude Longitude Heading Altitude Ground
Speed
26-Sep-21 16:04 36.808348 -118.201583 65 3903ft 0kts
26-Sep-21 16:05 36.808348 -118.201583 65 3903ft 0kts
26-Sep-21 16:06 36.808348 -118.201583 65 3903ft 0kts
26-Sep-21 16:07 36.808348 -118.201583 65 3903ft 0kts
26-Sep-21 16:08 36.809988 -118.201589 334 3903ft 20kts
26-Sep-21 16:09 36.816588 -118.205452 337 3903ft 29kts
26-Sep-21 16:10 36.818641 -118.206665 154 3903ft 0kts
26-Sep-21 16:11 36.805749 -118.199367 157 4125ft 85kts
26-Sep-21 16:12 36.785302 -118.185238 151 4965ft 84kts
26-Sep-21 16:13 36.764536 -118.171531 150 5800ft 85kts
26-Sep-21 16:14 36.743083 -118.155993 149 6625ft 90kts
26-Sep-21 16:15 36.720947 -118.139509 150 7478ft 99kts
26-Sep-21 16:16 36.694094 -118.120787 150 8122ft 118kts
26-Sep-21 16:17 36.664625 -118.100183 150 8731ft 123kts
26-Sep-21 16:18 36.635609 -118.079909 150 9473ft 114kts
26-Sep-21 16:19 36.608820 -118.061249 150 10252ft 106kts
26-Sep-21 16:20 36.584094 -118.044128 150 11024ft 96kts
26-Sep-21 16:21 36.571151 -118.019982 90 11530ft 106kts
26-Sep-21 16:22 36.574062 -117.977219 80 11654ft 135kts
26-Sep-21 16:23 36.580027 -117.932110 80 11622ft 119kts
26-Sep-21 16:24 36.585916 -117.887553 80 11506ft 140kts
26-Sep-21 16:25 36.586872 -117.837891 89 11503ft 145kts
26-Sep-21 16:26 36.587118 -117.787125 89 11503ft 147kts
26-Sep-21 16:27 36.587366 -117.736298 89 11502ft 147kts
26-Sep-21 16:28 36.587835 -117.685504 88 11503ft 147kts
26-Sep-21 16:29 36.588816 -117.634543 88 11502ft 147kts
26-Sep-21 16:30 36.589779 -117.583551 88 11502ft 147kts
26-Sep-21 16:31 36.589801 -117.532683 90 11502ft 147kts
26-Sep-21 16:32 36.589725 -117.481800 89 11502ft 147kts
26-Sep-21 16:33 36.589972 -117.430833 89 11502ft 147kts
26-Sep-21 16:34 36.590219 -117.380034 89 11502ft 147kts
26-Sep-21 16:35 36.590466 -117.329100 89 11440ft 148kts
26-Sep-21 16:36 36.590724 -117.275572 89 10949ft 158kts
26-Sep-21 16:37 36.590988 -117.220192 89 10450ft 160kts
26-Sep-21 16:38 36.591253 -117.164651 89 9950ft 160kts
26-Sep-21 16:39 36.591516 -117.109228 89 9515ft 157kts
26-Sep-21 16:40 36.591587 -117.056737 90 9502ft 150kts
26-Sep-21 16:41 36.590453 -117.004644 91 9502ft 150kts
26-Sep-21 16:42 36.589243 -116.952596 91 9502ft 150kts
26-Sep-21 16:43 36.588038 -116.900753 91 9502ft 150kts
26-Sep-21 16:44 36.586829 -116.848771 91 9502ft 150kts
26-Sep-21 16:45 36.585617 -116.796651 91 9502ft 150kts
26-Sep-21 16:46 36.584410 -116.744705 91 9502ft 150kts
26-Sep-21 16:47 36.583202 -116.692779 91 9502ft 150kts
26-Sep-21 16:48 36.581991 -116.640686 91 9502ft 150kts
26-Sep-21 16:49 36.580782 -116.588704 91 9502ft 150kts
26-Sep-21 16:50 36.571029 -116.540118 124 9510ft 149kts
26-Sep-21 16:51 36.542945 -116.502371 144 9503ft 150kts
26-Sep-21 16:52 36.508300 -116.473376 146 9502ft 150kts
26-Sep-21 16:53 36.473799 -116.443715 144 9503ft 150kts
26-Sep-21 16:54 36.441596 -116.410929 136 9504ft 149kts
26-Sep-21 16:55 36.409700 -116.377567 141 9503ft 150kts
26-Sep-21 16:56 36.376875 -116.345363 141 9502ft 150kts
26-Sep-21 16:57 36.344009 -116.313233 142 9502ft 150kts
26-Sep-21 16:58 36.310769 -116.281778 142 9502ft 150kts
26-Sep-21 16:59 36.277787 -116.249991 141 9502ft 150kts
26-Sep-21 17:00 36.244864 -116.217750 141 9502ft 150kts
26-Sep-21 17:01 36.212052 -116.185629 141 9502ft 150kts
26-Sep-21 17:02 36.179263 -116.153546 141 9502ft 150kts
26-Sep-21 17:03 36.146367 -116.121370 141 9401ft 153kts
26-Sep-21 17:04 36.112041 -116.087816 141 8905ft 159kts
26-Sep-21 17:05 36.077263 -116.053835 141 8404ft 158kts
26-Sep-21 17:06 36.042798 -116.020175 141 7905ft 158kts
26-Sep-21 17:07 36.018535 -115.975711 125 7414ft 158kts
26-Sep-21 17:08 35.992437 -115.932158 126 6915ft 156kts
26-Sep-21 17:09 35.966900 -115.889834 126 6411ft 150kts
26-Sep-21 17:10 35.941862 -115.848351 126 5911ft 151kts
26-Sep-21 17:11 35.916717 -115.806704 126 5411ft 149kts
26-Sep-21 17:12 35.892515 -115.766629 126 4909ft 144kts
26-Sep-21 17:13 35.868610 -115.727065 126 4410ft 144kts
26-Sep-21 17:14 35.844058 -115.690791 131 4164ft 124kts
26-Sep-21 17:15 35.824000 -115.663717 132 3783ft 99kts
26-Sep-21 17:16 35.808070 -115.643683 133 3192ft 71kts
26-Sep-21 17:17 35.795316 -115.627299 133 2602ft 40kts
26-Sep-21 17:18 35.794287 -115.624929 317 2602ft 0kts
26-Sep-21 17:19 35.794287 -115.624929 317 2602ft 0kts
26-Sep-21 17:20 35.794287 -115.624929 317 2602ft 0kts

Navigation Log

Ident Type
Flight plan parsing failed, navigation log unavailable